createdAt,value
2023-11-06T00:00:49.616Z,2.38
2023-11-06T00:03:16.884Z,2.45
2023-11-06T00:05:43.599Z,2.50
2023-11-06T00:08:10.614Z,2.45
2023-11-06T00:10:37.168Z,2.60
2023-11-06T00:13:05.240Z,2.67
2023-11-06T00:15:31.832Z,2.72
2023-11-06T00:17:58.609Z,2.72
2023-11-06T00:20:25.149Z,2.50
2023-11-06T00:22:51.813Z,2.90
2023-11-06T00:25:18.335Z,3.22
2023-11-06T00:27:44.938Z,3.13
2023-11-06T00:30:11.785Z,3.08
2023-11-06T00:32:38.448Z,3.42
2023-11-06T00:35:05.474Z,4.05
2023-11-06T00:37:32.914Z,3.33
2023-11-06T00:39:59.383Z,3.20
2023-11-06T00:42:25.915Z,3.83
2023-11-06T00:44:52.593Z,3.72
2023-11-06T00:47:19.144Z,3.35
2023-11-06T00:49:45.678Z,3.83
2023-11-06T00:52:12.619Z,4.13
2023-11-06T00:54:39.133Z,3.85
2023-11-06T00:57:05.645Z,3.80
2023-11-06T00:59:32.185Z,3.75
2023-11-06T01:01:58.779Z,3.55
2023-11-06T01:04:25.308Z,4.30
2023-11-06T01:06:53.334Z,3.85
2023-11-06T01:09:21.022Z,4.13
2023-11-06T01:11:49.507Z,4.40
2023-11-06T01:14:16.979Z,4.72
2023-11-06T01:16:44.018Z,5.45
2023-11-06T01:19:10.607Z,4.80
2023-11-06T01:21:37.070Z,5.15
2023-11-06T01:24:03.836Z,4.50
2023-11-06T01:26:30.300Z,4.07
2023-11-06T01:28:56.770Z,2.70
2023-11-06T01:31:23.244Z,2.95
2023-11-06T01:33:49.799Z,2.88
2023-11-06T01:36:17.252Z,2.80
2023-11-06T01:38:43.714Z,2.70
2023-11-06T01:41:10.249Z,2.78
2023-11-06T01:43:37.151Z,3.70
2023-11-06T01:46:03.870Z,3.38
2023-11-06T01:48:30.762Z,3.53
2023-11-06T01:50:59.734Z,3.50
2023-11-06T01:53:29.797Z,3.65
2023-11-06T01:55:57.238Z,4.00
2023-11-06T01:58:24.089Z,4.00
2023-11-06T02:00:52.936Z,4.20
2023-11-06T02:03:19.642Z,5.03
2023-11-06T02:05:47.858Z,4.55
2023-11-06T02:08:17.273Z,4.88
2023-11-06T02:10:46.167Z,5.47
2023-11-06T02:13:13.069Z,6.72
2023-11-06T02:15:41.137Z,5.85
2023-11-06T02:18:09.913Z,6.20
2023-11-06T02:20:39.567Z,6.78
2023-11-06T02:23:06.713Z,6.00
2023-11-06T02:35:19.329Z,4.80
2023-11-06T02:37:45.960Z,5.22
2023-11-06T02:40:13.694Z,4.60
2023-11-06T02:42:40.489Z,2.60
2023-11-06T02:45:07.676Z,2.38
2023-11-06T02:50:00.973Z,1.40
2023-11-06T02:52:27.491Z,1.60
2023-11-06T02:54:54.119Z,1.30
2023-11-06T02:57:20.571Z,1.65
2023-11-06T02:59:47.154Z,1.27
2023-11-06T03:02:14.048Z,1.60
2023-11-06T03:04:40.632Z,1.40
2023-11-06T03:07:07.942Z,1.65
2023-11-06T03:09:34.497Z,1.30
2023-11-06T03:12:01.059Z,1.73
2023-11-06T03:14:27.651Z,1.90
2023-11-06T03:16:54.288Z,1.92
2023-11-06T03:19:20.807Z,2.22
2023-11-06T03:21:47.352Z,2.50
2023-11-06T03:24:14.218Z,2.20
2023-11-06T03:26:40.929Z,1.50
2023-11-06T03:29:07.553Z,1.27
2023-11-06T03:31:34.329Z,1.40
2023-11-06T03:34:00.909Z,1.17
2023-11-06T03:36:27.552Z,1.10
2023-11-06T03:38:54.774Z,1.17
2023-11-06T03:43:53.046Z,0.95
2023-11-06T03:46:21.236Z,1.08
2023-11-06T03:48:47.823Z,0.70
2023-11-06T03:51:14.891Z,0.90
2023-11-06T03:53:41.723Z,0.82
2023-11-06T03:56:09.190Z,0.80
2023-11-06T03:58:35.717Z,1.20
2023-11-06T04:01:02.204Z,0.70
2023-11-06T04:03:28.727Z,0.90
2023-11-06T04:05:55.446Z,0.75
2023-11-06T04:08:22.435Z,0.70
2023-11-06T04:10:51.582Z,0.88
2023-11-06T04:13:18.292Z,0.70
2023-11-06T04:15:45.919Z,0.57
2023-11-06T04:18:12.570Z,0.82
2023-11-06T04:20:43.044Z,0.70
2023-11-06T04:23:12.584Z,0.70
2023-11-06T04:25:39.249Z,0.85
2023-11-06T04:28:06.757Z,0.88
2023-11-06T04:30:33.605Z,0.63
2023-11-06T04:33:00.396Z,0.57
2023-11-06T04:35:28.267Z,0.90
2023-11-06T04:37:54.892Z,0.70
2023-11-06T04:40:21.402Z,0.70
2023-11-06T04:42:48.617Z,0.75
2023-11-06T04:45:15.165Z,0.77
2023-11-06T04:47:41.812Z,0.98
2023-11-06T04:50:08.950Z,0.70
2023-11-06T04:55:02.001Z,0.70
2023-11-06T04:57:28.494Z,0.60
2023-11-06T04:59:55.055Z,0.63
2023-11-06T05:02:21.531Z,0.68
2023-11-06T05:04:48.215Z,0.73
2023-11-06T05:07:15.207Z,0.98
2023-11-06T05:09:43.717Z,0.70
2023-11-06T05:12:11.308Z,0.70
2023-11-06T05:14:38.074Z,0.90
2023-11-06T05:17:06.312Z,0.80
2023-11-06T05:19:38.460Z,0.65
2023-11-06T05:22:05.228Z,0.80
2023-11-06T05:24:31.762Z,0.75
2023-11-06T05:26:59.027Z,0.82
2023-11-06T05:29:25.621Z,0.70
2023-11-06T05:31:52.232Z,1.10
2023-11-06T05:34:18.826Z,0.88
2023-11-06T05:36:45.686Z,0.70
2023-11-06T05:39:12.691Z,1.20
2023-11-06T05:41:39.708Z,0.80
2023-11-06T05:44:06.319Z,0.90
2023-11-06T05:46:32.844Z,0.90
2023-11-06T05:48:59.535Z,0.88
2023-11-06T05:51:26.954Z,0.68
2023-11-06T05:53:53.644Z,0.90
2023-11-06T05:56:20.212Z,0.70
2023-11-06T05:58:46.973Z,0.90
2023-11-06T06:01:14.005Z,1.13
2023-11-06T06:03:41.212Z,0.75
2023-11-06T06:06:08.260Z,0.80
2023-11-06T06:08:34.819Z,1.10
2023-11-06T06:11:01.424Z,0.88
2023-11-06T06:13:28.028Z,0.90
2023-11-06T06:15:54.570Z,0.65
2023-11-06T06:18:21.217Z,0.65
2023-11-06T06:20:47.848Z,0.80
2023-11-06T06:23:14.442Z,0.95
2023-11-06T06:25:44.481Z,0.80
2023-11-06T06:28:11.017Z,0.65
2023-11-06T06:30:37.543Z,0.77
2023-11-06T06:33:06.430Z,1.00
2023-11-06T06:35:32.975Z,0.70
2023-11-06T06:37:59.545Z,0.80
2023-11-06T06:40:27.396Z,0.93
2023-11-06T06:42:53.893Z,21.73
2023-11-06T06:45:20.459Z,13.30
2023-11-06T06:47:47.011Z,1.38
2023-11-06T06:50:13.688Z,0.98
2023-11-06T06:52:40.207Z,0.90
2023-11-06T06:55:07.279Z,1.50
2023-11-06T07:00:00.288Z,0.90
2023-11-06T07:02:27.060Z,1.35
2023-11-06T07:04:53.672Z,1.00
2023-11-06T07:07:20.149Z,0.90
2023-11-06T07:09:46.678Z,0.88
2023-11-06T07:12:15.226Z,0.82
2023-11-06T07:14:41.849Z,1.00
2023-11-06T07:17:08.484Z,0.93
2023-11-06T07:19:35.088Z,1.10
2023-11-06T07:22:02.867Z,0.82
2023-11-06T07:24:29.677Z,1.00
2023-11-06T07:26:57.589Z,1.20
2023-11-06T07:29:24.945Z,1.10
2023-11-06T07:31:51.968Z,1.25
2023-11-06T07:34:22.856Z,1.50
2023-11-06T07:36:50.082Z,0.70
2023-11-06T07:39:16.823Z,0.98
2023-11-06T07:41:43.999Z,1.00
2023-11-06T07:44:10.825Z,1.00
2023-11-06T07:46:37.596Z,1.00
2023-11-06T07:49:04.566Z,1.00
2023-11-06T07:53:57.940Z,2.38
2023-11-06T07:56:24.438Z,4.45
2023-11-06T07:58:50.920Z,2.00
2023-11-06T08:01:19.966Z,0.93
2023-11-06T08:03:46.725Z,0.80
2023-11-06T08:06:13.822Z,0.80
2023-11-06T08:08:42.285Z,1.00
2023-11-06T08:11:09.417Z,1.02
2023-11-06T08:13:36.313Z,1.38
2023-11-06T08:16:05.779Z,1.10
2023-11-06T08:18:34.242Z,0.88
2023-11-06T08:21:01.304Z,1.20
2023-11-06T08:23:32.102Z,1.10
2023-11-06T08:25:58.778Z,1.20
2023-11-06T08:28:25.556Z,0.95
2023-11-06T08:30:52.540Z,1.30
2023-11-06T08:35:47.122Z,1.50
2023-11-06T08:38:14.885Z,4.00
2023-11-06T08:40:41.556Z,1.10
2023-11-06T08:43:08.765Z,1.15
2023-11-06T08:45:35.334Z,1.13
2023-11-06T08:48:01.978Z,0.90
2023-11-06T08:50:30.746Z,0.70
2023-11-06T08:52:58.133Z,0.90
2023-11-06T08:55:25.696Z,0.90
2023-11-06T08:57:52.468Z,0.75
2023-11-06T09:00:20.253Z,1.20
2023-11-06T09:02:48.425Z,1.45
2023-11-06T09:05:16.509Z,1.70
2023-11-06T09:07:43.118Z,1.52
2023-11-06T09:10:11.152Z,1.27
2023-11-06T09:12:40.451Z,1.80
2023-11-06T09:15:07.809Z,1.20
2023-11-06T09:17:34.311Z,4.40
2023-11-06T09:20:01.014Z,0.85
2023-11-06T09:22:27.795Z,1.10
2023-11-06T09:24:54.350Z,1.77
2023-11-06T09:27:20.962Z,1.35
2023-11-06T09:29:47.795Z,1.40
2023-11-06T09:32:14.860Z,2.78
2023-11-06T09:34:41.577Z,0.90
2023-11-06T09:37:08.107Z,0.82
2023-11-06T09:39:35.451Z,1.80
2023-11-06T09:42:03.256Z,0.82
2023-11-06T09:44:29.924Z,0.90
2023-11-06T09:46:57.596Z,0.90
2023-11-06T09:49:28.309Z,0.85
2023-11-06T09:51:55.514Z,1.00
2023-11-06T09:54:23.176Z,1.00
2023-11-06T09:56:50.043Z,1.30
2023-11-06T09:59:18.801Z,1.20
2023-11-06T10:01:45.561Z,1.05
2023-11-06T10:04:12.157Z,0.88
2023-11-06T10:06:39.216Z,1.10
2023-11-06T10:09:23.086Z,1.45
2023-11-06T10:11:50.137Z,0.88
2023-11-06T10:14:16.842Z,1.00
2023-11-06T10:16:43.857Z,0.80
2023-11-06T10:19:15.413Z,0.80
2023-11-06T10:21:42.236Z,0.73
2023-11-06T10:24:10.369Z,28.58
2023-11-06T10:26:37.199Z,1.67
2023-11-06T10:31:49.486Z,0.85
2023-11-06T10:34:29.994Z,1.10
2023-11-06T10:37:15.098Z,0.90
2023-11-06T10:39:51.807Z,1.05
2023-11-06T10:42:21.055Z,1.13
2023-11-06T10:44:56.410Z,1.00
2023-11-06T10:47:35.101Z,1.02
2023-11-06T10:50:11.172Z,0.80
2023-11-06T10:52:42.123Z,1.20
2023-11-06T10:55:18.536Z,1.10
2023-11-06T10:57:54.825Z,1.10
2023-11-06T11:00:22.612Z,1.40
2023-11-06T11:02:53.016Z,1.08
2023-11-06T11:05:25.137Z,0.93
2023-11-06T11:07:54.880Z,1.05
2023-11-06T11:10:28.037Z,1.33
2023-11-06T11:15:25.845Z,1.38
2023-11-06T11:18:14.506Z,1.00
2023-11-06T11:21:01.810Z,0.90
2023-11-06T11:23:45.189Z,1.50
2023-11-06T11:26:15.563Z,1.50
2023-11-06T11:29:10.725Z,1.70
2023-11-06T11:31:45.392Z,1.33
2023-11-06T11:34:30.243Z,5.85
2023-11-06T11:36:57.145Z,1.58
2023-11-06T11:39:23.798Z,1.40
2023-11-06T11:42:06.187Z,1.40
2023-11-06T11:44:33.513Z,1.08
2023-11-06T11:47:02.827Z,1.23
2023-11-06T11:49:40.702Z,1.27
2023-11-06T11:52:09.459Z,1.25
2023-11-06T11:54:38.547Z,1.10
2023-11-06T11:57:07.092Z,3.40
2023-11-06T11:59:51.780Z,4.32
2023-11-06T12:02:29.906Z,1.30
2023-11-06T12:05:01.916Z,0.85
2023-11-06T12:07:41.553Z,1.10
2023-11-06T12:10:08.594Z,0.82
2023-11-06T12:12:35.073Z,3.03
2023-11-06T12:15:03.374Z,1.90
2023-11-06T12:17:32.525Z,4.10
2023-11-06T12:20:03.057Z,13.80
2023-11-06T12:22:32.412Z,1.42
2023-11-06T12:24:59.530Z,1.75
2023-11-06T12:27:36.530Z,1.40
2023-11-06T12:30:12.779Z,1.65
2023-11-06T12:32:39.670Z,1.02
2023-11-06T12:37:51.625Z,1.20
2023-11-06T12:40:20.276Z,1.23
2023-11-06T12:42:49.962Z,1.42
2023-11-06T12:45:33.122Z,1.27
2023-11-06T12:48:01.530Z,1.15
2023-11-06T12:50:31.032Z,1.15
2023-11-06T12:52:57.747Z,1.23
2023-11-06T12:55:24.417Z,0.88
2023-11-06T12:57:51.960Z,0.90
2023-11-06T13:00:29.332Z,1.30
2023-11-06T13:02:56.071Z,0.70
2023-11-06T13:05:22.622Z,1.10
2023-11-06T13:07:52.917Z,1.30
2023-11-06T13:10:21.229Z,1.23
2023-11-06T13:12:48.759Z,1.00
2023-11-06T13:15:16.348Z,1.20
2023-11-06T13:17:46.412Z,1.15
2023-11-06T13:20:34.044Z,1.23
2023-11-06T13:23:00.655Z,0.90
2023-11-06T13:25:28.388Z,1.10
2023-11-06T13:27:57.811Z,1.40
2023-11-06T13:30:25.267Z,1.15
2023-11-06T13:32:52.242Z,1.27
2023-11-06T13:35:19.591Z,1.27
2023-11-06T13:37:49.670Z,1.50
2023-11-06T13:40:30.015Z,1.20
2023-11-06T13:42:57.171Z,1.13
2023-11-06T13:45:23.716Z,1.52
2023-11-06T13:47:54.994Z,1.30
2023-11-06T13:50:46.801Z,1.20
2023-11-06T13:53:24.421Z,1.10
2023-11-06T13:56:38.231Z,1.20
2023-11-06T13:59:09.724Z,1.40
2023-11-06T14:01:48.299Z,1.45
2023-11-06T14:04:18.278Z,1.40
2023-11-06T14:06:47.425Z,1.95
2023-11-06T14:09:32.505Z,2.70
2023-11-06T14:11:58.988Z,2.70
2023-11-06T14:14:25.572Z,2.22
2023-11-06T14:16:56.754Z,1.70
2023-11-06T14:19:25.936Z,1.60
2023-11-06T14:21:52.454Z,1.73
2023-11-06T14:24:20.770Z,1.50
2023-11-06T14:26:47.329Z,1.50
2023-11-06T14:29:14.031Z,1.25
2023-11-06T14:31:40.983Z,1.70
2023-11-06T14:36:33.987Z,1.73
2023-11-06T14:39:00.751Z,1.88
2023-11-06T14:41:27.580Z,1.92
2023-11-06T14:43:55.540Z,2.40
2023-11-06T14:46:24.139Z,2.63
2023-11-06T14:48:56.317Z,2.45
2023-11-06T14:51:29.685Z,2.80
2023-11-06T14:53:56.642Z,2.25
2023-11-06T14:56:23.237Z,2.15
2023-11-06T14:58:49.736Z,2.60
2023-11-06T15:01:16.274Z,2.60
2023-11-06T15:03:43.093Z,3.38
2023-11-06T15:08:39.334Z,3.35
2023-11-06T15:11:06.135Z,3.00
2023-11-06T15:13:33.778Z,3.15
2023-11-06T15:16:01.659Z,2.97
2023-11-06T15:18:28.888Z,5.07
2023-11-06T15:20:56.674Z,3.40
2023-11-06T15:23:24.868Z,4.10
2023-11-06T15:25:51.389Z,3.00
2023-11-06T15:28:17.905Z,2.83
2023-11-06T15:30:44.413Z,2.90
2023-11-06T15:33:11.129Z,3.00
2023-11-06T15:35:38.033Z,4.13
2023-11-06T15:38:04.690Z,3.13
2023-11-06T15:40:31.394Z,4.35
2023-11-06T15:42:57.906Z,4.60
2023-11-06T15:45:25.301Z,4.97
2023-11-06T15:47:53.068Z,5.05
2023-11-06T15:50:20.716Z,5.65
2023-11-06T15:52:47.915Z,5.18
2023-11-06T15:55:15.298Z,7.60
2023-11-06T15:57:41.926Z,7.55
2023-11-06T16:00:09.276Z,7.18
2023-11-06T16:02:36.128Z,6.43
2023-11-06T16:05:02.738Z,5.35
2023-11-06T16:07:29.275Z,5.75
2023-11-06T16:09:55.793Z,5.85
2023-11-06T16:12:22.321Z,5.75
2023-11-06T16:14:48.922Z,6.60
2023-11-06T16:17:15.877Z,5.72
2023-11-06T16:19:42.516Z,6.80
2023-11-06T16:22:10.409Z,6.43
2023-11-06T16:24:37.274Z,8.93
2023-11-06T16:27:03.872Z,14.10
2023-11-06T16:29:32.848Z,17.23
2023-11-06T16:32:02.030Z,19.13
2023-11-06T16:34:39.283Z,33.47
2023-11-06T16:37:13.254Z,26.67
2023-11-06T16:39:42.869Z,25.10
2023-11-06T16:42:10.933Z,19.83
2023-11-06T16:44:38.243Z,18.05
2023-11-06T16:47:05.136Z,16.70
2023-11-06T16:49:31.596Z,15.77
2023-11-06T16:51:58.157Z,14.80
2023-11-06T16:54:27.276Z,13.27
2023-11-06T16:56:55.300Z,16.02
2023-11-06T16:59:23.379Z,16.17
2023-11-06T17:01:50.422Z,16.00
2023-11-06T17:04:17.083Z,14.05
2023-11-06T17:06:44.452Z,13.85
2023-11-06T17:09:14.957Z,13.73
2023-11-06T17:11:42.185Z,15.07
2023-11-06T17:14:08.709Z,16.10
2023-11-06T17:16:35.301Z,16.38
2023-11-06T17:19:01.999Z,16.38
2023-11-06T17:21:28.862Z,16.17
2023-11-06T17:23:55.576Z,16.08
2023-11-06T17:26:22.448Z,16.00
2023-11-06T17:28:50.765Z,17.25
2023-11-06T17:31:18.244Z,16.92
2023-11-06T17:33:50.239Z,15.07
2023-11-06T17:36:17.057Z,16.75
2023-11-06T17:38:43.777Z,16.08
2023-11-06T17:41:10.392Z,15.43
2023-11-06T17:43:37.245Z,15.70
2023-11-06T17:46:06.516Z,15.80
2023-11-06T17:48:33.652Z,17.45
2023-11-06T17:53:27.213Z,15.13
2023-11-06T17:55:54.450Z,16.98
2023-11-06T18:00:47.697Z,15.32
2023-11-06T18:03:15.245Z,15.68
2023-11-06T18:05:41.923Z,17.27
2023-11-06T18:08:08.447Z,16.08
2023-11-06T18:10:34.937Z,16.77
2023-11-06T18:13:01.466Z,16.85
2023-11-06T18:15:28.956Z,20.10
2023-11-06T18:17:55.810Z,20.83
2023-11-06T18:20:22.763Z,20.52
2023-11-06T18:22:49.391Z,19.33
2023-11-06T18:25:18.395Z,19.48
2023-11-06T18:27:45.043Z,21.65
2023-11-06T18:30:12.233Z,21.85
2023-11-06T18:35:05.803Z,20.08
2023-11-06T18:37:33.055Z,21.02
2023-11-06T18:42:29.164Z,21.10
2023-11-06T18:44:55.917Z,22.50
2023-11-06T18:47:24.815Z,23.00
2023-11-06T18:49:52.639Z,23.08
2023-11-06T18:52:19.934Z,24.05
2023-11-06T18:54:46.949Z,20.35
2023-11-06T18:57:17.287Z,23.35
2023-11-06T18:59:47.104Z,23.10
2023-11-06T19:02:14.394Z,22.75
2023-11-06T19:04:42.159Z,22.02
2023-11-06T19:07:09.266Z,21.25
2023-11-06T19:09:36.149Z,21.95
2023-11-06T19:12:02.806Z,22.25
2023-11-06T19:14:30.078Z,20.83
2023-11-06T19:16:59.839Z,23.02
2023-11-06T19:19:26.344Z,22.58
2023-11-06T19:21:52.887Z,24.75
2023-11-06T19:24:22.651Z,23.60
2023-11-06T19:26:50.548Z,24.77
2023-11-06T19:29:19.572Z,24.38
2023-11-06T19:31:46.526Z,25.02
2023-11-06T19:34:14.096Z,24.63
2023-11-06T19:36:40.887Z,26.10
2023-11-06T19:39:08.468Z,25.55
2023-11-06T19:41:35.400Z,27.58
2023-11-06T19:44:02.149Z,26.15
2023-11-06T19:46:28.761Z,27.20
2023-11-06T19:48:55.731Z,26.25
2023-11-06T19:51:23.229Z,27.50
2023-11-06T19:53:50.126Z,25.52
2023-11-06T19:56:16.885Z,27.20
2023-11-06T19:58:48.186Z,28.02
2023-11-06T20:01:15.936Z,29.45
2023-11-06T20:03:43.480Z,25.85
2023-11-06T20:06:11.622Z,26.70
2023-11-06T20:08:39.096Z,27.10
2023-11-06T20:11:06.023Z,27.02
2023-11-06T20:13:32.628Z,29.42
2023-11-06T20:16:00.050Z,29.55
2023-11-06T20:18:28.899Z,27.58
2023-11-06T20:20:55.597Z,27.58
2023-11-06T20:23:22.450Z,27.52
2023-11-06T20:25:49.193Z,28.58
2023-11-06T20:28:15.744Z,27.02
2023-11-06T20:30:42.241Z,36.00
2023-11-06T20:33:08.999Z,38.42
2023-11-06T20:35:35.849Z,34.42
2023-11-06T20:38:02.624Z,30.50
2023-11-06T20:40:30.751Z,30.48
2023-11-06T20:42:57.321Z,33.15
2023-11-06T20:45:23.865Z,31.45
2023-11-06T20:47:51.589Z,30.90
2023-11-06T20:50:18.207Z,29.35
2023-11-06T20:52:44.861Z,30.48
2023-11-06T20:55:11.382Z,30.50
2023-11-06T20:57:38.331Z,30.15
2023-11-06T21:00:05.398Z,30.92
2023-11-06T21:02:31.970Z,29.63
2023-11-06T21:04:58.540Z,29.33
2023-11-06T21:07:25.452Z,29.92
2023-11-06T21:09:52.627Z,29.00
2023-11-06T21:12:20.130Z,28.02
2023-11-06T21:14:46.776Z,27.92
2023-11-06T21:17:13.272Z,27.23
2023-11-06T21:19:39.968Z,29.20
2023-11-06T21:22:07.246Z,28.38
2023-11-06T21:27:01.678Z,26.10
2023-11-06T21:29:28.265Z,26.90
2023-11-06T21:31:54.755Z,27.95
2023-11-06T21:34:21.402Z,27.95
2023-11-06T21:36:47.978Z,25.02
2023-11-06T21:39:14.574Z,26.33
2023-11-06T21:41:42.527Z,26.73
2023-11-06T21:44:11.114Z,26.85
2023-11-06T21:46:42.354Z,25.45
2023-11-06T21:49:11.133Z,26.20
2023-11-06T21:51:38.314Z,25.20
2023-11-06T21:54:05.730Z,24.67
2023-11-06T21:56:33.941Z,25.55
2023-11-06T21:59:01.687Z,25.92
2023-11-06T22:01:28.272Z,25.58
2023-11-06T22:03:55.017Z,25.23
2023-11-06T22:06:25.862Z,24.70
2023-11-06T22:08:52.606Z,24.40
2023-11-06T22:11:19.293Z,22.75
2023-11-06T22:13:46.284Z,24.17
2023-11-06T22:16:13.289Z,23.75
2023-11-06T22:18:39.981Z,24.30
2023-11-06T22:21:06.937Z,22.30
2023-11-06T22:23:33.510Z,24.27
2023-11-06T22:26:00.054Z,23.58
2023-11-06T22:28:27.589Z,23.98
2023-11-06T22:30:54.103Z,23.63
2023-11-06T22:33:21.096Z,22.77
2023-11-06T22:35:47.885Z,22.60
2023-11-06T22:38:14.709Z,22.48
2023-11-06T22:40:41.427Z,23.73
2023-11-06T22:43:07.928Z,24.17
2023-11-06T22:45:34.940Z,22.80
2023-11-06T22:48:03.578Z,23.58
2023-11-06T22:50:30.345Z,22.75
2023-11-06T22:52:56.899Z,22.17
2023-11-06T22:55:24.845Z,22.42
2023-11-06T22:57:52.384Z,22.35
2023-11-06T23:00:23.803Z,23.38
2023-11-06T23:02:50.977Z,22.33
2023-11-06T23:07:44.321Z,21.05
2023-11-06T23:10:12.501Z,23.48
2023-11-06T23:12:40.675Z,22.35
2023-11-06T23:15:10.737Z,22.45
2023-11-06T23:17:38.997Z,20.92
2023-11-06T23:20:06.146Z,21.60
2023-11-06T23:23:29.181Z,22.30
2023-11-06T23:25:56.801Z,21.52
2023-11-06T23:28:23.452Z,21.65
2023-11-06T23:30:50.035Z,22.88
2023-11-06T23:33:17.165Z,21.33
2023-11-06T23:35:43.877Z,21.27
2023-11-06T23:38:10.428Z,21.73
2023-11-06T23:40:37.130Z,19.88
2023-11-06T23:43:04.105Z,19.88
2023-11-06T23:45:30.813Z,19.63
2023-11-06T23:47:57.478Z,18.15
2023-11-06T23:50:24.153Z,18.77
2023-11-06T23:52:51.602Z,19.60
2023-11-06T23:55:19.846Z,18.98
2023-11-06T23:57:46.618Z,19.58
